Time;durP1;ratioP1;P1;durP2;ratioP2;P2;SDS_P1;SDS_P2;PMS_P1;PMS_P2;Temp;Humidity;BMP_temperature;BMP_pressure;BME280_temperature;BME280_humidity;BME280_pressure;Samples;Min_cycle;Max_cycle;Signal;HPM_P1;HPM_P2
2021/12/21 00:00:11;;;;;;;1.42;1.08;;;;;;;-9.58;100.00;97980.25;5153426;27;20050;-64
2021/12/21 00:02:38;;;;;;;3.53;1.20;;;;;;;-9.31;100.00;97980.03;5153115;27;20053;-64
2021/12/21 00:05:05;;;;;;;1.40;1.02;;;;;;;-9.34;100.00;97982.41;5153290;27;20058;-64
2021/12/21 00:07:31;;;;;;;1.75;1.30;;;;;;;-9.34;100.00;97996.47;5153286;27;20429;-64
2021/12/21 00:09:57;;;;;;;1.10;1.00;;;;;;;-9.35;100.00;97994.09;5153144;27;20390;-64
2021/12/21 00:12:27;;;;;;;2.22;1.10;;;;;;;-9.35;100.00;97997.53;5152910;27;20053;-64
2021/12/21 00:14:57;;;;;;;1.38;1.10;;;;;;;-9.39;100.00;97999.13;5153119;27;20047;-64
2021/12/21 00:17:44;;;;;;;1.23;1.13;;;;;;;-9.35;100.00;98007.34;5152555;27;20057;-64
2021/12/21 00:20:25;;;;;;;0.88;0.82;;;;;;;-9.57;100.00;98008.38;5153123;27;20074;-64
2021/12/21 00:25:32;;;;;;;1.15;1.00;;;;;;;-10.23;100.00;98022.22;5135119;27;20129;-64
2021/12/21 00:27:58;;;;;;;2.28;1.00;;;;;;;-10.33;100.00;98021.38;5153053;27;20050;-64
2021/12/21 00:30:25;;;;;;;0.98;0.93;;;;;;;-10.48;100.00;98024.75;5152392;27;20094;-63
2021/12/21 00:32:51;;;;;;;2.15;1.23;;;;;;;-10.51;100.00;98035.88;5152895;27;20599;-64
2021/12/21 00:35:18;;;;;;;1.88;1.20;;;;;;;-10.48;100.00;98036.16;5151765;27;20504;-64
2021/12/21 00:37:46;;;;;;;1.15;1.05;;;;;;;-10.76;100.00;98058.47;5152625;27;20047;-63
2021/12/21 00:40:13;;;;;;;2.60;0.82;;;;;;;-10.87;100.00;98061.28;5152560;27;20179;-63
2021/12/21 00:42:40;;;;;;;3.05;1.30;;;;;;;-11.00;100.00;98071.25;5152333;27;20099;-64
2021/12/21 00:45:07;;;;;;;1.42;1.23;;;;;;;-10.94;100.00;98062.31;5152412;27;20129;-63
2021/12/21 00:47:35;;;;;;;2.45;1.13;;;;;;;-11.29;100.00;98078.69;5152505;27;20086;-63
2021/12/21 00:50:03;;;;;;;2.15;1.17;;;;;;;-11.27;100.00;98065.19;5152206;27;20046;-63
2021/12/21 00:52:31;;;;;;;3.22;1.10;;;;;;;-11.29;100.00;98064.66;5152189;27;20046;-64
2021/12/21 00:54:57;;;;;;;1.38;1.20;;;;;;;-11.27;100.00;98051.94;5152578;27;20405;-64
2021/12/21 00:57:23;;;;;;;4.43;1.20;;;;;;;-11.33;100.00;98058.25;5152344;27;20053;-64
2021/12/21 00:59:49;;;;;;;2.95;1.20;;;;;;;-11.33;100.00;98053.75;5152520;27;20047;-64
2021/12/21 01:02:16;;;;;;;2.80;1.00;;;;;;;-11.34;100.00;98057.44;5152062;27;20053;-64
2021/12/21 01:04:46;;;;;;;4.03;1.20;;;;;;;-11.55;100.00;98047.72;5152293;27;20047;-64
2021/12/21 01:07:20;;;;;;;3.25;1.20;;;;;;;-11.45;100.00;98040.69;5152011;27;20179;-64
2021/12/21 01:10:32;;;;;;;1.75;1.40;;;;;;;-11.47;100.00;98042.78;5152215;27;20062;-64
2021/12/21 01:13:09;;;;;;;2.35;1.25;;;;;;;-11.56;100.00;98038.19;5151812;27;20416;-64
2021/12/21 01:15:50;;;;;;;1.33;1.23;;;;;;;-11.59;100.00;98034.22;5151897;27;20061;-64
2021/12/21 01:18:21;;;;;;;2.25;1.50;;;;;;;-11.59;100.00;98036.03;5151585;27;20572;-64
2021/12/21 01:20:51;;;;;;;1.95;1.42;;;;;;;-11.73;100.00;98039.06;5151830;27;20146;-64
2021/12/21 01:26:08;;;;;;;3.28;1.50;;;;;;;-11.79;100.00;98048.00;5150778;27;20047;-64
2021/12/21 01:28:43;;;;;;;2.17;1.40;;;;;;;-11.81;100.00;98046.66;5152007;27;20050;-64
2021/12/21 01:31:21;;;;;;;2.40;1.90;;;;;;;-11.77;100.00;98050.38;5151814;27;20050;-64
2021/12/21 01:34:01;;;;;;;1.90;1.52;;;;;;;-11.76;100.00;98052.81;5151622;27;20073;-64
2021/12/21 01:36:35;;;;;;;2.42;1.33;;;;;;;-11.82;100.00;98048.50;5151856;27;20043;-64
2021/12/21 01:39:09;;;;;;;2.47;1.20;;;;;;;-11.89;100.00;98063.78;5151478;27;20071;-63
2021/12/21 01:41:42;;;;;;;2.42;1.33;;;;;;;-11.91;100.00;98069.28;5151719;27;20058;-64
2021/12/21 01:44:21;;;;;;;2.38;1.58;;;;;;;-11.93;100.00;98074.00;5151490;27;20054;-64
2021/12/21 01:49:37;;;;;;;3.38;1.70;;;;;;;-11.80;100.00;98106.38;5151673;27;20107;-64
2021/12/21 01:52:05;;;;;;;1.83;1.33;;;;;;;-11.96;100.00;98114.19;5151431;27;20046;-64
2021/12/21 01:54:31;;;;;;;2.45;1.73;;;;;;;-11.97;100.00;98117.03;5151857;27;20082;-63
2021/12/21 01:56:58;;;;;;;1.80;1.63;;;;;;;-11.93;100.00;98129.53;5151294;27;20047;-64
2021/12/21 01:59:25;;;;;;;1.45;1.30;;;;;;;-11.90;100.00;98152.81;5151558;27;20102;-65
2021/12/21 02:01:51;;;;;;;4.80;1.85;;;;;;;-11.95;100.00;98178.41;5151346;27;20462;-64
2021/12/21 02:04:17;;;;;;;3.28;1.25;;;;;;;-11.99;100.00;98175.44;5151276;27;20138;-64
2021/12/21 02:06:44;;;;;;;3.72;1.50;;;;;;;-11.95;100.00;98202.97;5151367;27;20105;-64
2021/12/21 02:09:10;;;;;;;3.65;2.05;;;;;;;-11.95;100.00;98207.47;5151097;27;20055;-64
2021/12/21 02:11:37;;;;;;;1.83;1.60;;;;;;;-11.92;100.00;98223.66;5151084;27;20050;-64
2021/12/21 02:14:08;;;;;;;2.45;1.48;;;;;;;-11.93;100.00;98227.31;5151305;27;20079;-64
2021/12/21 02:16:42;;;;;;;1.20;1.10;;;;;;;-11.88;100.00;98232.69;5151025;27;20051;-64
2021/12/21 02:19:18;;;;;;;1.50;1.13;;;;;;;-11.96;100.00;98235.75;5150529;27;20092;-64
2021/12/21 02:21:49;;;;;;;2.42;1.42;;;;;;;-11.93;100.00;98251.09;5151325;27;20090;-64
2021/12/21 02:24:20;;;;;;;2.58;1.50;;;;;;;-11.82;100.00;98267.09;5150915;27;20136;-64
2021/12/21 02:26:51;;;;;;;1.42;1.30;;;;;;;-11.93;100.00;98282.81;5150944;27;20110;-64
2021/12/21 02:29:24;;;;;;;4.03;1.38;;;;;;;-11.81;100.00;98290.63;5150930;27;20043;-64
2021/12/21 02:31:51;;;;;;;1.50;1.38;;;;;;;-11.88;100.00;98304.06;5150774;27;20139;-64
2021/12/21 02:34:20;;;;;;;1.92;1.50;;;;;;;-11.76;100.00;98321.63;5151013;27;20055;-64
2021/12/21 02:36:48;;;;;;;2.38;1.77;;;;;;;-11.73;100.00;98337.00;5150849;27;20133;-64
2021/12/21 02:39:15;;;;;;;2.88;1.52;;;;;;;-11.88;100.00;98337.63;5151066;27;20505;-64
2021/12/21 02:41:43;;;;;;;4.45;1.30;;;;;;;-11.98;100.00;98334.81;5150746;27;20142;-64
2021/12/21 02:44:10;;;;;;;6.30;2.05;;;;;;;-12.00;100.00;98364.09;5150773;27;20049;-64
2021/12/21 02:46:39;;;;;;;2.35;1.80;;;;;;;-12.00;100.00;98371.22;5150719;27;20050;-64
2021/12/21 02:49:06;;;;;;;6.10;1.85;;;;;;;-11.99;100.00;98397.44;5151036;27;20058;-64
2021/12/21 02:51:32;;;;;;;4.38;1.73;;;;;;;-12.03;100.00;98406.84;5150691;27;20055;-64
2021/12/21 02:53:59;;;;;;;4.75;1.50;;;;;;;-11.97;100.00;98431.53;5150498;27;20054;-64
2021/12/21 02:56:25;;;;;;;3.38;1.60;;;;;;;-11.92;100.00;98450.94;5150713;27;20047;-64
2021/12/21 02:58:52;;;;;;;2.95;1.83;;;;;;;-11.96;100.00;98455.09;5151015;27;20050;-64
2021/12/21 03:01:18;;;;;;;3.58;1.73;;;;;;;-11.93;100.00;98483.69;5154280;27;20510;-64
2021/12/21 03:03:45;;;;;;;2.63;1.73;;;;;;;-11.88;100.00;98488.28;5153906;27;20398;-64
2021/12/21 03:06:13;;;;;;;2.13;1.75;;;;;;;-11.84;100.00;98505.28;5154255;27;20054;-64
2021/12/21 03:08:42;;;;;;;4.35;1.70;;;;;;;-11.80;100.00;98511.66;5153995;27;20042;-64
2021/12/21 03:11:16;;;;;;;4.53;1.58;;;;;;;-11.73;100.00;98519.44;5153934;27;20515;-64
2021/12/21 03:16:37;;;;;;;4.50;1.90;;;;;;;-11.77;100.00;98523.59;5104620;27;20065;-65
2021/12/21 03:19:04;;;;;;;1.58;1.48;;;;;;;-11.76;100.00;98523.38;5153514;27;20051;-64
2021/12/21 03:21:32;;;;;;;3.85;1.52;;;;;;;-11.80;100.00;98530.16;5154034;27;20097;-64
2021/12/21 03:23:59;;;;;;;2.33;2.13;;;;;;;-11.81;100.00;98525.91;5154240;27;20054;-64
2021/12/21 03:26:26;;;;;;;2.90;1.50;;;;;;;-11.80;100.00;98532.81;5153796;27;20047;-63
2021/12/21 03:28:53;;;;;;;5.00;2.67;;;;;;;-11.80;100.00;98545.22;5154209;27;20052;-64
2021/12/21 03:31:20;;;;;;;8.40;2.35;;;;;;;-11.80;100.00;98558.44;5153663;27;20452;-64
2021/12/21 03:33:47;;;;;;;5.13;2.10;;;;;;;-11.79;100.00;98571.44;5153967;27;20065;-64
2021/12/21 03:36:16;;;;;;;3.40;1.90;;;;;;;-11.86;100.00;98568.97;5153640;27;20142;-64
2021/12/21 03:38:50;;;;;;;5.45;2.25;;;;;;;-11.82;100.00;98579.84;5153457;27;20085;-64
2021/12/21 03:41:18;;;;;;;5.28;2.55;;;;;;;-11.77;100.00;98587.84;5153522;27;20058;-64
2021/12/21 03:43:45;;;;;;;5.30;2.20;;;;;;;-11.89;100.00;98587.94;5153472;27;20066;-64
2021/12/21 03:46:14;;;;;;;8.73;2.45;;;;;;;-11.84;100.00;98610.22;5153691;27;20053;-64
2021/12/21 03:48:42;;;;;;;6.38;2.28;;;;;;;-11.91;100.00;98610.34;5153302;27;20053;-64
2021/12/21 03:51:09;;;;;;;5.85;1.88;;;;;;;-11.89;100.00;98645.28;5153525;27;20161;-65
2021/12/21 03:53:36;;;;;;;3.60;2.42;;;;;;;-11.76;100.00;98668.81;5153257;27;20513;-64
2021/12/21 03:56:21;;;;;;;3.75;2.20;;;;;;;-11.87;100.00;98672.28;5153499;27;20138;-64
2021/12/21 03:58:48;;;;;;;6.93;2.60;;;;;;;-11.89;100.00;98698.16;5153111;27;20104;-64
2021/12/21 04:01:15;;;;;;;3.20;2.13;;;;;;;-11.92;100.00;98707.34;5152935;27;20145;-63
2021/12/21 04:03:41;;;;;;;3.13;2.03;;;;;;;-11.93;100.00;98716.28;5153249;27;20138;-64
2021/12/21 04:06:08;;;;;;;5.35;2.20;;;;;;;-11.99;100.00;98734.94;5152948;27;20560;-64
2021/12/21 04:08:34;;;;;;;2.85;2.13;;;;;;;-11.97;100.00;98752.16;5153082;27;20091;-64
2021/12/21 04:11:01;;;;;;;5.22;2.63;;;;;;;-12.04;100.00;98766.53;5151572;27;20050;-64
2021/12/21 04:13:29;;;;;;;8.85;3.25;;;;;;;-12.10;100.00;98776.94;5153059;27;20057;-64
2021/12/21 04:15:58;;;;;;;7.20;3.00;;;;;;;-12.05;100.00;98805.34;5152890;27;20531;-64
2021/12/21 04:18:25;;;;;;;4.45;2.25;;;;;;;-11.97;100.00;98826.16;5152754;27;20248;-64
2021/12/21 04:20:52;;;;;;;5.40;1.98;;;;;;;-11.98;100.00;98847.53;5152837;27;20480;-64
2021/12/21 04:23:19;;;;;;;4.22;2.10;;;;;;;-12.06;100.00;98847.84;5152840;27;20057;-64
2021/12/21 04:25:45;;;;;;;3.10;1.95;;;;;;;-12.10;100.00;98860.72;5152699;27;20134;-64
2021/12/21 04:28:12;;;;;;;3.30;2.30;;;;;;;-12.08;100.00;98871.06;5152570;27;20050;-63
2021/12/21 04:30:38;;;;;;;8.27;2.28;;;;;;;-12.06;100.00;98890.13;5152623;27;20485;-64
2021/12/21 04:33:05;;;;;;;4.90;2.20;;;;;;;-12.13;100.00;98893.69;5152472;27;20098;-64
2021/12/21 04:35:31;;;;;;;5.25;2.63;;;;;;;-12.11;100.00;98909.31;5152556;27;20137;-63
2021/12/21 04:38:01;;;;;;;8.38;3.33;;;;;;;-12.09;100.00;98912.56;5152612;27;20057;-64
2021/12/21 04:40:41;;;;;;;7.65;3.13;;;;;;;-12.13;100.00;98922.78;5152711;27;20051;-63
2021/12/21 04:43:08;;;;;;;6.47;2.83;;;;;;;-12.13;100.00;98930.69;5152235;27;20142;-64
2021/12/21 04:45:34;;;;;;;5.65;2.20;;;;;;;-12.05;100.00;98939.34;5152378;27;20043;-64
2021/12/21 04:48:01;;;;;;;10.73;3.50;;;;;;;-11.97;100.00;98950.41;5152254;27;20069;-64
2021/12/21 04:50:28;;;;;;;9.98;3.55;;;;;;;-11.80;100.00;98958.47;5152152;27;20524;-64
2021/12/21 04:52:54;;;;;;;7.50;2.70;;;;;;;-11.71;100.00;98973.00;5152395;27;20138;-64
2021/12/21 04:55:21;;;;;;;7.78;3.08;;;;;;;-11.59;100.00;98970.41;5151704;27;20489;-64
2021/12/21 04:57:47;;;;;;;8.52;2.95;;;;;;;-11.60;100.00;98963.47;5152300;27;20134;-63
2021/12/21 05:00:15;;;;;;;6.00;2.53;;;;;;;-11.54;100.00;98959.13;5152167;27;20055;-63
2021/12/21 05:02:41;;;;;;;5.72;2.75;;;;;;;-11.44;100.00;98960.19;5152288;27;20055;-63
2021/12/21 05:05:08;;;;;;;5.70;2.38;;;;;;;-11.38;100.00;98953.19;5152075;27;20479;-63
2021/12/21 05:07:37;;;;;;;5.60;2.60;;;;;;;-11.35;100.00;98950.09;5152316;27;20098;-63
2021/12/21 05:10:04;;;;;;;5.18;2.47;;;;;;;-11.29;100.00;98945.75;5151994;27;20070;-63
2021/12/21 05:12:31;;;;;;;6.22;2.30;;;;;;;-11.27;100.00;98928.56;5151672;27;20421;-62
2021/12/21 05:14:57;;;;;;;7.50;2.88;;;;;;;-11.26;100.00;98924.09;5151457;27;20138;-63
2021/12/21 05:17:24;;;;;;;6.97;2.80;;;;;;;-11.20;100.00;98921.31;5151534;27;20050;-64
2021/12/21 05:19:50;;;;;;;4.50;2.30;;;;;;;-11.16;100.00;98919.84;5150123;27;20536;-64
2021/12/21 05:22:17;;;;;;;7.30;2.65;;;;;;;-11.09;100.00;98918.91;5130583;27;20054;-64
2021/12/21 05:24:44;;;;;;;5.20;2.65;;;;;;;-11.09;100.00;98917.09;5131200;28;20158;-62
2021/12/21 05:27:11;;;;;;;5.65;2.50;;;;;;;-10.93;100.00;98932.28;5131042;28;20558;-63
2021/12/21 05:29:37;;;;;;;9.90;3.03;;;;;;;-10.89;100.00;98940.56;5131225;28;20047;-63
2021/12/21 05:32:05;;;;;;;5.90;2.92;;;;;;;-10.79;100.00;98955.88;5131045;28;20051;-62
2021/12/21 05:34:31;;;;;;;5.82;3.40;;;;;;;-10.63;100.00;98965.75;5130914;28;20099;-63
2021/12/21 05:36:58;;;;;;;4.03;2.30;;;;;;;-10.50;100.00;98980.59;5130821;28;20547;-63
2021/12/21 05:39:27;;;;;;;5.15;2.50;;;;;;;-10.46;100.00;98964.03;5131109;28;20055;-62
2021/12/21 05:41:55;;;;;;;4.95;2.42;;;;;;;-10.41;100.00;98955.38;5128921;28;20051;-62
2021/12/21 05:44:23;;;;;;;4.00;2.40;;;;;;;-10.38;100.00;98925.75;5130558;28;20100;-63
2021/12/21 05:46:51;;;;;;;3.35;2.33;;;;;;;-10.20;100.00;98922.09;5130343;27;20051;-62
2021/12/21 05:49:18;;;;;;;5.85;2.50;;;;;;;-10.08;100.00;98901.66;5130491;28;20520;-62
2021/12/21 05:51:46;;;;;;;3.03;2.28;;;;;;;-9.97;100.00;98884.88;5130552;28;20043;-62
2021/12/21 05:54:12;;;;;;;3.17;2.53;;;;;;;-9.98;100.00;98862.06;5130520;28;20523;-62
2021/12/21 05:56:38;;;;;;;8.05;2.75;;;;;;;-9.95;100.00;98824.47;5130292;28;20049;-62
2021/12/21 05:59:06;;;;;;;9.77;3.85;;;;;;;-9.94;100.00;98796.09;5130364;28;20051;-62
2021/12/21 06:01:34;;;;;;;7.75;2.65;;;;;;;-9.87;100.00;98769.41;5130247;28;20523;-62
2021/12/21 06:04:00;;;;;;;8.00;2.70;;;;;;;-9.89;100.00;98760.91;5130257;28;20051;-62
2021/12/21 06:06:27;;;;;;;7.78;3.13;;;;;;;-9.93;100.00;98720.78;5130678;28;20141;-62
2021/12/21 06:08:56;;;;;;;7.75;2.45;;;;;;;-10.01;100.00;98692.84;5129891;28;20043;-62
2021/12/21 06:11:23;;;;;;;3.42;2.50;;;;;;;-10.05;100.00;98681.09;5128928;28;20091;-62
2021/12/21 06:28:01;;;;;;;12.10;3.88;;;;;;;-9.97;100.00;98648.88;5129914;28;20107;-62
2021/12/21 06:30:28;;;;;;;17.58;4.97;;;;;;;-10.14;100.00;98626.88;5129685;28;20051;-63
2021/12/21 06:32:55;;;;;;;35.70;9.20;;;;;;;-10.10;100.00;98648.41;5129524;27;20055;-63
2021/12/21 06:35:22;;;;;;;10.45;3.13;;;;;;;-10.05;100.00;98659.91;5132483;28;20051;-62
2021/12/21 06:37:48;;;;;;;20.08;6.65;;;;;;;-9.85;100.00;98680.59;5133354;28;20480;-63
2021/12/21 06:40:15;;;;;;;5.45;3.10;;;;;;;-9.73;100.00;98691.91;5133306;28;20451;-63
2021/12/21 06:42:43;;;;;;;8.30;3.50;;;;;;;-9.59;100.00;98694.22;5132839;27;20506;-62
2021/12/21 06:45:16;;;;;;;51.80;11.55;;;;;;;-9.38;100.00;98700.59;5133176;28;20043;-63
2021/12/21 06:53:12;;;;;;;8.43;4.10;;;;;;;-9.30;100.00;98628.47;5133141;27;20062;-62
2021/12/21 06:55:39;;;;;;;9.73;3.95;;;;;;;-9.25;100.00;98615.28;5133050;28;20047;-62
2021/12/21 06:58:05;;;;;;;7.32;3.80;;;;;;;-9.28;100.00;98595.31;5124030;27;20061;-63
2021/12/21 07:00:32;;;;;;;7.35;4.20;;;;;;;-9.26;100.00;98585.28;5114867;28;20105;-63
2021/12/21 07:02:58;;;;;;;10.52;3.92;;;;;;;-9.22;100.00;98601.50;5112519;28;20063;-63
2021/12/21 07:05:26;;;;;;;38.53;11.15;;;;;;;-9.30;100.00;98583.34;5112427;28;20047;-64
2021/12/21 07:07:53;;;;;;;10.38;4.47;;;;;;;-9.35;100.00;98593.94;5119797;28;20043;-63
2021/12/21 07:10:24;;;;;;;8.63;4.32;;;;;;;-9.42;100.00;98595.97;5132115;28;20061;-64
2021/12/21 07:18:29;;;;;;;6.35;3.40;;;;;;;-9.44;100.00;98620.09;5132260;28;20050;-63
2021/12/21 07:20:59;;;;;;;5.80;3.65;;;;;;;-9.53;100.00;98610.97;5132922;27;20051;-63
2021/12/21 07:23:27;;;;;;;8.30;3.53;;;;;;;-9.53;100.00;98616.25;5131791;28;20137;-63
2021/12/21 07:25:53;;;;;;;4.88;3.38;;;;;;;-9.59;100.00;98610.13;5132422;28;20058;-63
2021/12/21 07:28:20;;;;;;;7.53;3.67;;;;;;;-9.54;100.00;98612.81;5131881;28;20102;-63
2021/12/21 07:30:47;;;;;;;7.72;4.07;;;;;;;-9.49;100.00;98604.13;5132816;27;20058;-62
2021/12/21 07:33:14;;;;;;;8.00;3.55;;;;;;;-9.60;100.00;98583.81;5132597;28;20047;-62
2021/12/21 07:35:40;;;;;;;7.45;3.40;;;;;;;-9.61;100.00;98598.94;5132585;27;20055;-63
2021/12/21 07:38:07;;;;;;;5.65;3.58;;;;;;;-9.61;100.00;98609.56;5132542;28;20497;-63
2021/12/21 07:40:34;;;;;;;6.80;3.63;;;;;;;-9.65;100.00;98605.78;5132309;28;20047;-64
2021/12/21 07:43:00;;;;;;;6.18;3.70;;;;;;;-9.58;100.00;98619.66;5132470;28;20069;-63
2021/12/21 07:45:27;;;;;;;9.90;3.92;;;;;;;-9.35;100.00;98639.84;5131986;27;20044;-63
2021/12/21 07:47:53;;;;;;;6.20;3.67;;;;;;;-9.22;100.00;98643.19;5132492;28;20457;-62
2021/12/21 07:50:20;;;;;;;9.85;3.95;;;;;;;-9.16;100.00;98642.16;5132444;27;20490;-62
2021/12/21 07:52:47;;;;;;;7.40;3.83;;;;;;;-9.21;100.00;98607.59;5132254;28;20057;-63
2021/12/21 07:55:14;;;;;;;6.97;3.97;;;;;;;-9.27;100.00;98594.25;5132392;28;20125;-62
2021/12/21 07:57:40;;;;;;;6.35;3.63;;;;;;;-9.21;100.00;98587.16;5132380;27;20077;-62
2021/12/21 08:00:08;;;;;;;7.53;4.22;;;;;;;-9.09;100.00;98595.78;5132328;28;20081;-61
2021/12/21 08:02:35;;;;;;;16.23;3.85;;;;;;;-8.97;100.00;98592.97;5131894;28;20057;-61
2021/12/21 08:05:05;;;;;;;7.20;4.00;;;;;;;-8.89;100.00;98584.56;5130912;28;20544;-63
2021/12/21 08:07:36;;;;;;;8.25;3.88;;;;;;;-8.87;100.00;98557.72;5129716;28;20047;-62
2021/12/21 08:10:18;;;;;;;6.40;3.40;;;;;;;-8.90;100.00;98548.41;5114921;28;20417;-61
2021/12/21 08:12:45;;;;;;;7.05;3.50;;;;;;;-8.89;100.00;98539.41;5131386;28;20051;-61
2021/12/21 08:15:12;;;;;;;8.02;4.53;;;;;;;-8.77;100.00;98552.50;5132031;28;20051;-62
2021/12/21 08:17:38;;;;;;;9.77;4.20;;;;;;;-8.65;100.00;98566.41;5131658;28;20051;-63
2021/12/21 08:20:05;;;;;;;14.35;4.32;;;;;;;-8.52;100.00;98570.50;5131371;28;20481;-63
2021/12/21 08:22:31;;;;;;;6.88;3.72;;;;;;;-8.43;100.00;98568.16;5131884;28;20058;-63
2021/12/21 08:24:57;;;;;;;5.97;3.80;;;;;;;-8.50;100.00;98535.69;5131958;28;20089;-62
2021/12/21 08:27:24;;;;;;;7.93;3.72;;;;;;;-8.74;100.00;98496.19;5132096;28;20047;-62
2021/12/21 08:29:51;;;;;;;8.23;3.15;;;;;;;-8.81;100.00;98493.75;5131692;28;20055;-62
2021/12/21 08:32:17;;;;;;;5.70;3.45;;;;;;;-8.85;100.00;98494.53;5131445;28;20487;-61
2021/12/21 08:34:43;;;;;;;7.22;3.42;;;;;;;-8.73;100.00;98491.69;5131102;28;20047;-61
2021/12/21 08:37:09;;;;;;;8.15;3.92;;;;;;;-8.70;100.00;98484.00;5131511;28;20054;-62
2021/12/21 08:39:38;;;;;;;7.75;4.07;;;;;;;-8.53;100.00;98499.78;5131043;28;20051;-63
2021/12/21 08:42:06;;;;;;;9.50;3.60;;;;;;;-8.50;100.00;98480.66;5131625;28;20082;-62
2021/12/21 08:44:32;;;;;;;6.00;3.47;;;;;;;-8.52;100.00;98458.06;5130954;28;20130;-62
2021/12/21 08:46:59;;;;;;;7.22;3.35;;;;;;;-8.54;100.00;98455.66;5131460;28;20099;-63
2021/12/21 08:49:26;;;;;;;6.30;3.75;;;;;;;-8.56;100.00;98442.66;5131057;28;20047;-62
2021/12/21 08:51:53;;;;;;;8.93;3.88;;;;;;;-8.59;100.00;98445.81;5131117;28;20051;-65
2021/12/21 08:54:20;;;;;;;4.97;3.63;;;;;;;-8.57;100.00;98448.19;5131291;28;20054;-65
2021/12/21 08:56:48;;;;;;;5.65;3.78;;;;;;;-8.51;100.00;98438.41;5130635;27;20455;-63
2021/12/21 08:59:15;;;;;;;7.97;3.83;;;;;;;-8.59;100.00;98437.84;5131454;28;20050;-64
2021/12/21 09:01:41;;;;;;;8.70;3.40;;;;;;;-8.59;100.00;98443.16;5131334;28;20138;-63
2021/12/21 09:04:08;;;;;;;9.40;4.22;;;;;;;-8.59;100.00;98437.84;5131087;28;20043;-64
2021/12/21 09:06:35;;;;;;;12.15;3.47;;;;;;;-8.54;100.00;98437.06;5130776;28;20185;-64
2021/12/21 09:09:01;;;;;;;6.05;3.97;;;;;;;-8.51;100.00;98436.53;5133844;27;20059;-66
2021/12/21 09:11:28;;;;;;;18.45;4.00;;;;;;;-8.27;100.00;98439.53;5147922;27;20138;-62
2021/12/21 09:13:54;;;;;;;7.47;4.05;;;;;;;-8.27;100.00;98442.19;5151298;27;20134;-63
2021/12/21 09:16:20;;;;;;;3.78;2.80;;;;;;;-8.11;100.00;98446.53;5151684;27;20520;-64
2021/12/21 09:18:47;;;;;;;7.97;3.75;;;;;;;-7.92;100.00;98438.88;5151493;27;20099;-63
2021/12/21 09:21:14;;;;;;;5.90;2.95;;;;;;;-8.06;100.00;98403.19;5136943;27;20054;-66
2021/12/21 09:23:41;;;;;;;10.43;4.38;;;;;;;-8.12;100.00;98386.41;5140431;27;20421;-64
2021/12/21 09:26:07;;;;;;;7.30;3.38;;;;;;;-8.04;100.00;98382.44;5150887;27;20133;-64
2021/12/21 09:28:33;;;;;;;6.07;3.42;;;;;;;-8.18;100.00;98365.38;5151571;27;20501;-62
2021/12/21 09:31:00;;;;;;;7.38;4.05;;;;;;;-8.21;100.00;98361.38;5151892;27;20050;-64
2021/12/21 09:33:26;;;;;;;5.68;3.75;;;;;;;-8.16;100.00;98365.91;5151743;27;20485;-63
2021/12/21 09:35:52;;;;;;;4.90;3.40;;;;;;;-8.34;100.00;98357.34;5151464;27;20058;-62
2021/12/21 09:38:19;;;;;;;10.13;4.45;;;;;;;-8.40;100.00;98363.75;5151061;27;20076;-59
2021/12/21 09:40:46;;;;;;;6.85;3.75;;;;;;;-8.43;100.00;98374.94;5151500;27;20058;-63
2021/12/21 09:43:13;;;;;;;6.47;3.83;;;;;;;-8.39;100.00;98388.50;5151453;27;20505;-56
2021/12/21 09:45:39;;;;;;;6.10;4.00;;;;;;;-8.36;100.00;98399.38;5151444;27;20049;-62
2021/12/21 09:48:06;;;;;;;5.47;3.72;;;;;;;-8.42;100.00;98391.66;5151426;27;20058;-61
2021/12/21 09:50:33;;;;;;;7.22;3.78;;;;;;;-8.33;100.00;98409.50;5151193;27;20049;-64
2021/12/21 09:52:59;;;;;;;6.45;3.85;;;;;;;-8.26;100.00;98414.56;5151407;27;20047;-63
2021/12/21 09:55:29;;;;;;;9.90;3.40;;;;;;;-8.14;100.00;98415.13;5151152;27;20142;-63
2021/12/21 09:57:56;;;;;;;8.95;4.03;;;;;;;-8.13;100.00;98421.25;5151263;27;20093;-62
2021/12/21 10:00:24;;;;;;;8.02;3.95;;;;;;;-8.13;100.00;98405.28;5150949;27;20047;-63
2021/12/21 10:02:51;;;;;;;8.43;4.25;;;;;;;-8.03;100.00;98404.50;5151304;27;20042;-61
2021/12/21 10:05:20;;;;;;;5.53;3.50;;;;;;;-7.91;100.00;98399.75;5151453;27;20058;-62
2021/12/21 10:07:59;;;;;;;5.43;3.60;;;;;;;-8.02;100.00;98375.00;5151535;27;20054;-61
2021/12/21 10:10:26;;;;;;;5.72;3.72;;;;;;;-8.23;100.00;98347.56;5154806;27;20050;-62
2021/12/21 10:12:53;;;;;;;11.23;3.33;;;;;;;-8.31;100.00;98353.38;5154478;27;20145;-61
2021/12/21 10:15:21;;;;;;;8.32;3.63;;;;;;;-8.25;100.00;98362.19;5154567;27;20047;-62
2021/12/21 10:17:49;;;;;;;12.07;3.60;;;;;;;-8.26;100.00;98357.91;5155029;27;20465;-70
2021/12/21 10:20:30;;;;;;;7.95;3.65;;;;;;;-8.25;100.00;98360.31;5146349;27;20483;-67
2021/12/21 10:22:57;;;;;;;6.85;3.58;;;;;;;-8.11;100.00;98380.03;5146993;27;20076;-62
2021/12/21 10:25:24;;;;;;;6.05;3.65;;;;;;;-8.06;100.00;98369.41;5153921;27;20050;-63
2021/12/21 10:27:51;;;;;;;9.20;3.85;;;;;;;-8.03;100.00;98369.94;5154266;27;20050;-62
2021/12/21 10:30:17;;;;;;;9.40;4.13;;;;;;;-8.13;100.00;98360.88;5154249;27;20046;-62
2021/12/21 10:32:51;;;;;;;10.95;4.00;;;;;;;-8.11;100.00;98365.94;5154123;27;20054;-63
2021/12/21 10:35:18;;;;;;;10.63;3.75;;;;;;;-8.23;100.00;98346.75;5154309;27;20051;-64
2021/12/21 10:37:48;;;;;;;7.43;4.25;;;;;;;-8.17;100.00;98359.78;5154178;27;20054;-60
2021/12/21 10:40:23;;;;;;;7.85;4.68;;;;;;;-8.00;100.00;98380.06;5154276;27;20481;-52
2021/12/21 10:42:56;;;;;;;7.25;3.83;;;;;;;-7.89;100.00;98376.38;5154317;27;20125;-58
2021/12/21 10:45:28;;;;;;;5.97;3.28;;;;;;;-7.88;100.00;98367.31;5154343;27;20042;-66
2021/12/21 10:47:56;;;;;;;4.13;3.22;;;;;;;-7.83;100.00;98343.34;5153828;27;20553;-64
2021/12/21 10:50:22;;;;;;;14.95;3.55;;;;;;;-7.92;100.00;98326.34;5154313;27;20055;-62
2021/12/21 10:52:52;;;;;;;7.32;3.35;;;;;;;-7.88;100.00;98332.72;5153529;27;20050;-62
2021/12/21 10:55:27;;;;;;;8.50;3.85;;;;;;;-7.81;100.00;98330.59;5153973;27;20515;-64
2021/12/21 10:58:02;;;;;;;4.80;3.47;;;;;;;-7.85;100.00;98319.69;5153827;27;20057;-62
2021/12/21 11:00:29;;;;;;;6.13;3.88;;;;;;;-7.93;100.00;98320.22;5153777;27;20055;-63
2021/12/21 11:02:55;;;;;;;12.23;4.90;;;;;;;-7.95;100.00;98322.34;5144271;27;20047;-63
2021/12/21 11:05:22;;;;;;;4.93;3.30;;;;;;;-7.94;100.00;98328.47;5132782;28;20050;-67
2021/12/21 11:07:53;;;;;;;6.00;3.60;;;;;;;-7.87;100.00;98343.09;5133078;28;20093;-63
2021/12/21 11:10:26;;;;;;;9.20;4.43;;;;;;;-7.71;100.00;98346.56;5133176;28;20070;-66
2021/12/21 11:12:55;;;;;;;8.35;3.78;;;;;;;-7.56;100.00;98356.44;5132529;28;20469;-70
2021/12/21 11:15:28;;;;;;;8.77;3.83;;;;;;;-7.48;100.00;98344.44;5132590;27;20140;-70
2021/12/21 11:17:54;;;;;;;5.95;3.00;;;;;;;-7.34;100.00;98329.50;5132930;27;20047;-65
2021/12/21 11:20:21;;;;;;;5.53;3.33;;;;;;;-7.29;100.00;98313.53;5132035;27;20050;-63
2021/12/21 11:22:47;;;;;;;6.85;3.35;;;;;;;-7.24;100.00;98286.88;5132940;28;20055;-75
2021/12/21 11:25:15;;;;;;;6.10;3.53;;;;;;;-7.18;100.00;98271.69;5133159;28;20050;-66
2021/12/21 11:27:43;;;;;;;6.40;2.83;;;;;;;-7.29;100.00;98256.81;5132887;27;20047;-61
2021/12/21 11:30:11;;;;;;;4.60;2.80;;;;;;;-7.38;100.00;98240.59;5133178;28;20053;-60
2021/12/21 11:32:49;;;;;;;10.80;3.60;;;;;;;-7.55;100.00;98240.09;5132643;28;20051;-62
2021/12/21 11:38:04;;;;;;;7.82;3.22;;;;;;;-7.47;100.00;98244.88;5132511;27;20057;-65
2021/12/21 11:40:33;;;;;;;6.70;3.10;;;;;;;-7.40;100.00;98250.69;5132543;28;20047;-65
2021/12/21 11:43:16;;;;;;;7.65;2.85;;;;;;;-7.50;100.00;98256.84;5132664;27;20156;-66
2021/12/21 11:45:50;;;;;;;3.35;2.70;;;;;;;-7.40;100.00;98261.34;5132268;27;20050;-64
2021/12/21 11:48:25;;;;;;;6.83;3.10;;;;;;;-7.41;100.00;98252.56;5132355;27;20099;-65
2021/12/21 11:50:51;;;;;;;5.40;3.10;;;;;;;-7.37;100.00;98248.28;5132192;27;20043;-64
2021/12/21 11:53:19;;;;;;;5.55;3.05;;;;;;;-7.32;100.00;98247.50;5132598;28;20043;-69
2021/12/21 11:55:49;;;;;;;4.05;2.95;;;;;;;-7.45;100.00;98253.38;5132256;28;20061;-69
2021/12/21 11:58:18;;;;;;;3.92;2.95;;;;;;;-7.51;100.00;98255.25;5132231;27;20145;-66
2021/12/21 12:00:50;;;;;;;4.55;2.83;;;;;;;-7.49;100.00;98260.31;5132346;27;20051;-65
2021/12/21 12:03:21;;;;;;;4.65;2.50;;;;;;;-7.40;100.00;98256.81;5132682;27;20137;-62
2021/12/21 12:05:54;;;;;;;4.28;2.63;;;;;;;-7.52;100.00;98247.56;5132255;28;20138;-60